createdAt,value
2022-10-13T00:01:19.529Z,12.43
2022-10-13T00:04:22.399Z,12.95
2022-10-13T00:07:26.428Z,13.23
2022-10-13T00:10:29.457Z,13.33
2022-10-13T00:13:33.220Z,13.10
2022-10-13T00:16:36.277Z,12.57
2022-10-13T00:19:38.983Z,13.48
2022-10-13T00:22:41.912Z,12.90
2022-10-13T00:25:47.099Z,14.98
2022-10-13T00:28:52.778Z,14.68
2022-10-13T00:31:55.835Z,15.60
2022-10-13T00:34:58.925Z,13.95
2022-10-13T00:38:01.643Z,14.55
2022-10-13T00:41:07.294Z,13.13
2022-10-13T00:44:47.998Z,13.93
2022-10-13T00:47:57.253Z,13.50
2022-10-13T00:51:00.000Z,14.05
2022-10-13T00:54:04.032Z,12.88
2022-10-13T00:57:08.244Z,12.95
2022-10-13T01:00:12.304Z,12.88
2022-10-13T01:03:15.491Z,13.27
2022-10-13T01:06:23.404Z,13.25
2022-10-13T01:09:26.686Z,13.18
2022-10-13T01:12:43.189Z,12.73
2022-10-13T01:16:04.242Z,14.23
2022-10-13T01:19:34.746Z,14.27
2022-10-13T01:22:52.524Z,12.73
2022-10-13T01:26:20.262Z,13.43
2022-10-13T01:29:28.759Z,13.95
2022-10-13T01:32:34.538Z,13.57
2022-10-13T01:36:00.178Z,14.75
2022-10-13T01:39:03.102Z,14.05
2022-10-13T01:42:13.220Z,14.13
2022-10-13T01:45:18.377Z,12.13
2022-10-13T01:48:21.522Z,12.88
2022-10-13T01:51:27.848Z,13.27
2022-10-13T01:54:30.644Z,13.35
2022-10-13T01:57:42.076Z,12.27
2022-10-13T02:01:06.647Z,13.25
2022-10-13T02:04:21.889Z,14.27
2022-10-13T02:07:30.214Z,12.93
2022-10-13T02:11:02.051Z,13.32
2022-10-13T02:14:12.924Z,14.35
2022-10-13T02:17:16.547Z,14.63
2022-10-13T02:23:24.874Z,12.27
2022-10-13T02:26:27.871Z,13.27
2022-10-13T02:29:52.431Z,13.32
2022-10-13T02:32:55.253Z,12.27
2022-10-13T02:35:58.214Z,13.27
2022-10-13T02:39:00.969Z,12.35
2022-10-13T02:42:04.289Z,13.70
2022-10-13T02:45:07.701Z,13.85
2022-10-13T02:48:10.732Z,13.52
2022-10-13T02:51:13.508Z,13.55
2022-10-13T02:54:16.604Z,13.65
2022-10-13T02:57:19.356Z,13.95
2022-10-13T03:00:24.204Z,14.23
2022-10-13T03:03:26.913Z,14.43
2022-10-13T03:06:29.990Z,13.27
2022-10-13T03:09:33.142Z,13.70
2022-10-13T03:12:36.188Z,12.80
2022-10-13T03:15:39.409Z,14.57
2022-10-13T03:18:45.674Z,13.93
2022-10-13T03:21:48.612Z,13.23
2022-10-13T03:24:52.032Z,14.52
2022-10-13T03:27:55.827Z,15.18
2022-10-13T03:31:03.453Z,13.55
2022-10-13T03:34:06.338Z,13.65
2022-10-13T03:37:09.729Z,13.07
2022-10-13T03:40:13.183Z,12.90
2022-10-13T03:43:16.542Z,12.63
2022-10-13T03:46:19.276Z,12.90
2022-10-13T03:49:22.532Z,12.25
2022-10-13T03:52:25.025Z,13.27
2022-10-13T03:55:27.952Z,14.15
2022-10-13T03:58:30.516Z,14.80
2022-10-13T04:01:33.977Z,13.77
2022-10-13T04:04:38.383Z,12.23
2022-10-13T04:07:41.120Z,12.63
2022-10-13T04:10:58.734Z,12.20
2022-10-13T04:14:01.419Z,13.10
2022-10-13T04:17:04.773Z,12.50
2022-10-13T04:20:08.096Z,12.40
2022-10-13T04:23:12.376Z,12.77
2022-10-13T04:26:20.574Z,12.75
2022-10-13T04:29:24.256Z,13.23
2022-10-13T04:32:28.882Z,15.15
2022-10-13T04:35:31.990Z,14.10
2022-10-13T04:38:35.870Z,11.15
2022-10-13T04:41:38.895Z,10.45
2022-10-13T04:44:42.058Z,10.50
2022-10-13T04:47:47.414Z,10.73
2022-10-13T04:51:00.455Z,12.35
2022-10-13T04:54:05.704Z,11.55
2022-10-13T04:57:09.527Z,12.88
2022-10-13T05:00:13.170Z,14.23
2022-10-13T05:03:15.987Z,14.93
2022-10-13T05:06:21.768Z,15.55
2022-10-13T05:09:25.091Z,15.60
2022-10-13T05:12:28.336Z,15.50
2022-10-13T05:15:31.062Z,15.48
2022-10-13T05:18:34.522Z,15.07
2022-10-13T05:21:37.268Z,14.27
2022-10-13T05:24:40.987Z,13.82
2022-10-13T05:27:45.290Z,14.23
2022-10-13T05:30:48.304Z,14.00
2022-10-13T05:33:52.324Z,14.90
2022-10-13T05:39:59.064Z,13.90
2022-10-13T05:43:04.282Z,14.43
2022-10-13T05:46:07.920Z,16.12
2022-10-13T05:52:15.013Z,13.77
2022-10-13T05:55:18.895Z,14.18
2022-10-13T05:58:22.890Z,14.63
2022-10-13T06:01:27.148Z,14.10
2022-10-13T06:04:32.630Z,15.13
2022-10-13T06:07:36.007Z,14.63
2022-10-13T06:10:39.228Z,15.82
2022-10-13T06:13:41.939Z,17.58
2022-10-13T06:16:44.929Z,15.82
2022-10-13T06:19:47.776Z,15.38
2022-10-13T06:22:51.196Z,15.85
2022-10-13T06:25:55.376Z,15.98
2022-10-13T06:28:59.697Z,15.82
2022-10-13T06:32:03.087Z,14.75
2022-10-13T06:35:06.585Z,15.52
2022-10-13T06:38:09.957Z,13.60
2022-10-13T06:41:14.503Z,14.02
2022-10-13T06:44:17.515Z,14.05
2022-10-13T06:47:20.567Z,14.73
2022-10-13T06:50:23.804Z,15.05
2022-10-13T06:53:27.034Z,14.07
2022-10-13T06:56:30.263Z,14.82
2022-10-13T06:59:34.465Z,14.63
2022-10-13T07:02:41.767Z,14.57
2022-10-13T07:05:45.434Z,15.02
2022-10-13T07:08:48.203Z,15.38
2022-10-13T07:11:52.073Z,14.20
2022-10-13T07:14:55.006Z,14.98
2022-10-13T07:17:58.069Z,16.02
2022-10-13T07:21:01.881Z,15.15
2022-10-13T07:24:05.575Z,15.43
2022-10-13T07:27:08.335Z,16.80
2022-10-13T07:30:12.802Z,17.73
2022-10-13T07:33:16.037Z,17.90
2022-10-13T07:36:19.645Z,16.80
2022-10-13T07:39:22.404Z,15.77
2022-10-13T07:42:25.417Z,16.58
2022-10-13T07:45:28.869Z,16.27
2022-10-13T07:48:36.935Z,16.52
2022-10-13T07:51:39.763Z,16.70
2022-10-13T07:54:44.719Z,15.93
2022-10-13T07:57:47.566Z,14.95
2022-10-13T08:00:59.561Z,16.02
2022-10-13T08:04:02.805Z,15.82
2022-10-13T08:07:06.305Z,14.68
2022-10-13T08:10:09.809Z,15.60
2022-10-13T08:13:12.992Z,15.80
2022-10-13T08:16:17.299Z,14.25
2022-10-13T08:19:22.302Z,15.38
2022-10-13T08:22:28.257Z,15.45
2022-10-13T08:25:31.335Z,14.20
2022-10-13T08:28:34.719Z,15.25
2022-10-13T08:31:37.754Z,15.45
2022-10-13T08:34:41.140Z,15.63
2022-10-13T08:37:43.885Z,14.45
2022-10-13T08:40:50.710Z,13.62
2022-10-13T08:44:59.212Z,14.30
2022-10-13T08:47:35.915Z,13.85
2022-10-13T08:50:42.056Z,13.18
2022-10-13T08:53:46.669Z,14.25
2022-10-13T08:56:51.179Z,13.10
2022-10-13T08:59:54.070Z,11.43
2022-10-13T09:03:05.828Z,11.02
2022-10-13T09:06:17.205Z,10.02
2022-10-13T09:09:20.028Z,10.32
2022-10-13T09:12:25.409Z,10.67
2022-10-13T09:15:28.586Z,9.95
2022-10-13T09:18:33.069Z,10.52
2022-10-13T09:21:35.958Z,10.27
2022-10-13T09:24:39.207Z,9.95
2022-10-13T09:27:55.149Z,9.60
2022-10-13T09:31:13.252Z,9.23
2022-10-13T09:34:24.434Z,10.07
2022-10-13T09:37:28.652Z,9.95
2022-10-13T09:40:32.470Z,11.12
2022-10-13T09:43:38.544Z,10.07
2022-10-13T09:46:52.454Z,10.45
2022-10-13T09:50:07.641Z,9.88
2022-10-13T09:53:16.686Z,10.93
2022-10-13T09:56:24.206Z,10.63
2022-10-13T09:59:41.749Z,9.80
2022-10-13T10:02:56.956Z,9.70
2022-10-13T10:09:18.877Z,10.65
2022-10-13T10:12:27.668Z,10.55
2022-10-13T10:15:43.836Z,10.82
2022-10-13T10:18:58.768Z,10.00
2022-10-13T10:22:19.620Z,11.95
2022-10-13T10:25:49.884Z,9.98
2022-10-13T10:29:10.939Z,10.82
2022-10-13T10:32:50.991Z,11.07
2022-10-13T10:36:38.386Z,10.55
2022-10-13T10:40:11.888Z,10.60
2022-10-13T10:43:37.690Z,9.23
2022-10-13T10:46:46.945Z,9.63
2022-10-13T10:49:51.343Z,12.23
2022-10-13T10:53:01.706Z,8.85
2022-10-13T10:56:42.570Z,9.15
2022-10-13T11:00:00.335Z,8.95
2022-10-13T11:03:35.092Z,8.75
2022-10-13T11:06:38.636Z,9.55
2022-10-13T11:09:41.324Z,9.45
2022-10-13T11:12:53.325Z,8.82
2022-10-13T11:15:56.298Z,8.85
2022-10-13T11:19:08.876Z,9.00
2022-10-13T11:22:17.188Z,8.48
2022-10-13T11:25:46.385Z,8.38
2022-10-13T11:28:50.886Z,9.43
2022-10-13T11:31:55.348Z,8.30
2022-10-13T11:35:04.673Z,9.27
2022-10-13T11:38:22.490Z,9.23
2022-10-13T11:41:30.481Z,7.65
2022-10-13T11:44:59.567Z,8.15
2022-10-13T11:48:12.257Z,8.18
2022-10-13T11:51:23.245Z,8.00
2022-10-13T11:54:31.055Z,8.45
2022-10-13T11:57:34.092Z,9.50
2022-10-13T12:00:38.074Z,8.93
2022-10-13T12:03:43.625Z,8.57
2022-10-13T12:06:48.700Z,8.02
2022-10-13T12:09:57.343Z,8.80
2022-10-13T12:13:03.025Z,8.02
2022-10-13T12:16:07.161Z,8.50
2022-10-13T12:19:20.182Z,8.98
2022-10-13T12:22:23.498Z,8.65
2022-10-13T12:25:29.003Z,8.93
2022-10-13T12:29:12.791Z,8.82
2022-10-13T12:32:26.480Z,8.93
2022-10-13T12:35:34.290Z,9.10
2022-10-13T12:38:37.374Z,8.20
2022-10-13T12:41:43.621Z,8.25
2022-10-13T12:44:46.979Z,9.02
2022-10-13T12:47:52.628Z,8.52
2022-10-13T12:50:55.550Z,8.45
2022-10-13T12:53:58.575Z,7.65
2022-10-13T12:57:05.511Z,8.63
2022-10-13T13:00:21.033Z,8.27
2022-10-13T13:03:28.844Z,8.18
2022-10-13T13:06:37.129Z,8.55
2022-10-13T13:09:41.273Z,7.62
2022-10-13T13:12:45.755Z,7.62
2022-10-13T13:15:51.223Z,8.10
2022-10-13T13:18:54.213Z,7.70
2022-10-13T13:21:58.162Z,8.23
2022-10-13T13:25:01.400Z,7.62
2022-10-13T13:28:05.368Z,8.40
2022-10-13T13:34:12.212Z,7.68
2022-10-13T13:37:31.211Z,7.57
2022-10-13T13:40:34.528Z,7.68
2022-10-13T13:43:38.548Z,8.70
2022-10-13T13:46:42.251Z,7.97
2022-10-13T13:49:45.746Z,7.85
2022-10-13T13:52:48.506Z,7.43
2022-10-13T13:55:52.285Z,8.30
2022-10-13T13:58:54.999Z,8.40
2022-10-13T14:01:58.098Z,7.93
2022-10-13T14:05:02.808Z,8.55
2022-10-13T14:08:05.635Z,7.95
2022-10-13T14:11:09.318Z,8.05
2022-10-13T14:14:12.125Z,8.63
2022-10-13T14:17:15.135Z,8.07
2022-10-13T14:20:19.107Z,8.63
2022-10-13T14:26:25.445Z,8.38
2022-10-13T14:29:28.435Z,8.07
2022-10-13T14:32:31.225Z,8.43
2022-10-13T14:35:34.264Z,8.93
2022-10-13T14:38:38.668Z,8.93
2022-10-13T14:41:42.307Z,8.95
2022-10-13T14:44:45.318Z,8.48
2022-10-13T14:47:48.486Z,9.02
2022-10-13T14:50:51.174Z,9.00
2022-10-13T14:53:54.194Z,9.65
2022-10-13T14:56:56.940Z,9.35
2022-10-13T15:00:02.236Z,8.80
2022-10-13T15:03:06.478Z,9.20
2022-10-13T15:06:14.322Z,9.00
2022-10-13T15:09:18.169Z,9.13
2022-10-13T15:12:21.582Z,9.30
2022-10-13T15:15:24.890Z,9.37
2022-10-13T15:18:29.435Z,9.10
2022-10-13T15:21:32.323Z,8.68
2022-10-13T15:24:36.170Z,9.32
2022-10-13T15:27:42.099Z,8.40
2022-10-13T15:30:45.886Z,8.80
2022-10-13T15:33:52.176Z,11.50
2022-10-13T15:36:56.639Z,9.38
2022-10-13T15:39:59.535Z,9.43
2022-10-13T15:43:02.622Z,9.43
2022-10-13T15:46:08.758Z,10.10
2022-10-13T15:49:11.776Z,9.73
2022-10-13T15:52:14.620Z,9.43
2022-10-13T15:55:18.098Z,10.13
2022-10-13T15:58:20.920Z,10.02
2022-10-13T16:01:24.230Z,10.32
2022-10-13T16:04:29.739Z,9.77
2022-10-13T16:07:35.490Z,9.57
2022-10-13T16:10:41.629Z,10.18
2022-10-13T16:13:47.104Z,9.48
2022-10-13T16:16:51.109Z,8.45
2022-10-13T16:19:53.835Z,8.95
2022-10-13T16:22:57.876Z,8.83
2022-10-13T16:26:02.461Z,9.30
2022-10-13T16:29:06.499Z,9.13
2022-10-13T16:32:09.330Z,8.15
2022-10-13T16:35:12.477Z,9.05
2022-10-13T16:38:15.879Z,8.93
2022-10-13T16:41:18.954Z,8.80
2022-10-13T16:44:21.720Z,8.88
2022-10-13T16:47:24.965Z,8.50
2022-10-13T16:50:27.916Z,8.32
2022-10-13T16:53:31.229Z,8.90
2022-10-13T16:56:34.104Z,8.95
2022-10-13T16:59:37.128Z,8.90
2022-10-13T17:02:39.920Z,8.98
2022-10-13T17:05:43.425Z,9.32
2022-10-13T17:08:46.888Z,8.50
2022-10-13T17:11:50.066Z,9.52
2022-10-13T17:14:53.381Z,8.93
2022-10-13T17:17:56.719Z,9.65
2022-10-13T17:21:01.398Z,8.85
2022-10-13T17:24:05.022Z,8.55
2022-10-13T17:27:08.090Z,8.45
2022-10-13T17:30:12.049Z,8.18
2022-10-13T17:33:15.561Z,7.93
2022-10-13T17:36:21.756Z,8.20
2022-10-13T17:39:25.231Z,8.35
2022-10-13T17:42:30.110Z,7.80
2022-10-13T17:45:33.912Z,8.05
2022-10-13T17:48:40.084Z,7.70
2022-10-13T17:51:44.764Z,8.18
2022-10-13T17:54:50.003Z,7.95
2022-10-13T18:01:12.570Z,8.00
2022-10-13T18:04:18.895Z,7.50
2022-10-13T18:10:25.926Z,7.30
2022-10-13T18:16:35.125Z,8.02
2022-10-13T18:19:40.553Z,7.57
2022-10-13T18:22:44.278Z,17.05
2022-10-13T18:25:49.043Z,12.57
2022-10-13T18:28:53.937Z,11.75
2022-10-13T18:31:57.339Z,9.60
2022-10-13T18:35:00.623Z,10.82
2022-10-13T18:38:04.186Z,10.25
2022-10-13T18:41:09.781Z,8.77
2022-10-13T18:44:14.548Z,8.73
2022-10-13T18:50:21.954Z,8.65
2022-10-13T18:53:25.663Z,9.23
2022-10-13T18:56:30.684Z,8.55
2022-10-13T18:59:39.125Z,15.93
2022-10-13T19:02:42.771Z,15.75
2022-10-13T19:05:49.312Z,13.07
2022-10-13T19:08:59.544Z,10.70
2022-10-13T19:12:02.838Z,12.37
2022-10-13T19:15:06.844Z,12.57
2022-10-13T19:18:10.435Z,11.20
2022-10-13T19:21:15.515Z,12.48
2022-10-13T19:24:20.602Z,11.35
2022-10-13T19:27:24.069Z,11.57
2022-10-13T19:30:27.701Z,10.13
2022-10-13T19:33:31.611Z,10.48
2022-10-13T19:36:39.386Z,9.77
2022-10-13T19:39:42.692Z,10.45
2022-10-13T19:42:46.223Z,10.13
2022-10-13T19:45:58.805Z,10.32
2022-10-13T19:49:05.237Z,9.95
2022-10-13T19:52:09.611Z,9.57
2022-10-13T19:55:14.493Z,9.75
2022-10-13T19:58:18.126Z,10.07
2022-10-13T20:01:22.276Z,11.82
2022-10-13T20:04:25.746Z,10.50
2022-10-13T20:07:28.833Z,16.35
2022-10-13T20:10:32.196Z,20.00
2022-10-13T20:13:35.720Z,14.32
2022-10-13T20:16:39.089Z,11.75
2022-10-13T20:19:43.499Z,10.63
2022-10-13T20:22:47.147Z,11.43
2022-10-13T20:25:49.988Z,9.13
2022-10-13T20:28:54.626Z,8.90
2022-10-13T20:31:57.473Z,9.10
2022-10-13T20:35:00.472Z,9.48
2022-10-13T20:38:03.531Z,9.02
2022-10-13T20:41:15.435Z,9.30
2022-10-13T20:44:18.201Z,9.02
2022-10-13T20:47:21.521Z,8.90
2022-10-13T20:50:24.455Z,10.93
2022-10-13T20:53:27.759Z,11.12
2022-10-13T20:56:33.472Z,9.35
2022-10-13T20:59:36.674Z,9.97
2022-10-13T21:02:39.383Z,8.73
2022-10-13T21:05:42.348Z,8.93
2022-10-13T21:08:46.503Z,9.10
2022-10-13T21:11:49.587Z,8.55
2022-10-13T21:14:53.610Z,11.05
2022-10-13T21:17:56.735Z,11.30
2022-10-13T21:21:10.901Z,11.60
2022-10-13T21:24:15.185Z,10.25
2022-10-13T21:27:18.514Z,10.43
2022-10-13T21:30:21.719Z,10.90
2022-10-13T21:33:24.786Z,10.10
2022-10-13T21:36:33.269Z,10.75
2022-10-13T21:39:36.174Z,9.75
2022-10-13T21:42:39.894Z,10.05
2022-10-13T21:45:42.719Z,10.25
2022-10-13T21:48:46.985Z,10.80
2022-10-13T21:51:49.815Z,10.13
2022-10-13T21:54:53.346Z,11.07
2022-10-13T21:57:59.629Z,10.80
2022-10-13T22:01:08.104Z,10.48
2022-10-13T22:04:13.403Z,10.68
2022-10-13T22:07:16.096Z,9.77
2022-10-13T22:10:19.285Z,11.00
2022-10-13T22:13:22.005Z,10.60
2022-10-13T22:16:31.324Z,11.55
2022-10-13T22:19:34.559Z,11.45
2022-10-13T22:22:37.895Z,11.18
2022-10-13T22:25:47.486Z,12.93
2022-10-13T22:28:51.860Z,10.95
2022-10-13T22:31:58.671Z,11.03
2022-10-13T22:35:02.194Z,10.93
2022-10-13T22:38:04.935Z,11.10
2022-10-13T22:41:08.414Z,11.38
2022-10-13T22:44:11.229Z,12.27
2022-10-13T22:47:14.253Z,12.30
2022-10-13T22:50:18.457Z,12.48
2022-10-13T22:53:22.911Z,12.45
2022-10-13T22:56:28.122Z,11.68
2022-10-13T22:59:31.438Z,11.77
2022-10-13T23:02:34.933Z,11.68
2022-10-13T23:05:41.250Z,10.80
2022-10-13T23:08:44.129Z,11.35
2022-10-13T23:11:47.523Z,12.45
2022-10-13T23:14:53.729Z,10.73
2022-10-13T23:17:56.762Z,11.85
2022-10-13T23:20:59.511Z,10.52
2022-10-13T23:24:06.565Z,10.85
2022-10-13T23:27:09.282Z,12.15
2022-10-13T23:30:12.981Z,10.77
2022-10-13T23:33:15.711Z,10.70
2022-10-13T23:36:24.713Z,10.83
2022-10-13T23:39:29.752Z,11.55
2022-10-13T23:42:32.806Z,11.15
2022-10-13T23:45:35.510Z,17.50
2022-10-13T23:48:40.089Z,17.05
2022-10-13T23:51:43.641Z,11.07
2022-10-13T23:54:46.621Z,9.88
2022-10-13T23:57:49.989Z,10.60
